Time;durP1;ratioP1;P1;durP2;ratioP2;P2;SDS_P1;SDS_P2;PMS_P1;PMS_P2;Temp;Humidity;BMP_temperature;BMP_pressure;BME280_temperature;BME280_humidity;BME280_pressure;Samples;Min_cycle;Max_cycle;Signal;HPM_P1;HPM_P2
2022/06/26 00:02:02;;;;;;;1.50;1.10;;;;;;;;;;4994208;28;94755;-61
2022/06/26 00:04:29;;;;;;;1.35;1.25;;;;;;;;;;4994692;28;92453;-61
2022/06/26 00:06:56;;;;;;;2.90;1.42;;;;;;;;;;4995993;28;94578;-61
2022/06/26 00:09:23;;;;;;;1.30;1.17;;;;;;;;;;4995756;28;93619;-61
2022/06/26 00:11:49;;;;;;;3.35;1.10;;;;;;;;;;4999334;28;92350;-61
2022/06/26 00:14:15;;;;;;;1.55;1.27;;;;;;;;;;4995448;28;93366;-61
2022/06/26 00:16:42;;;;;;;1.70;1.10;;;;;;;;;;4996108;28;92350;-62
2022/06/26 00:19:08;;;;;;;2.25;1.30;;;;;;;;;;4996200;28;94665;-61
2022/06/26 00:21:34;;;;;;;1.35;1.20;;;;;;;;;;4995575;28;93724;-61
2022/06/26 00:24:01;;;;;;;1.70;1.30;;;;;;;;;;4995565;28;92500;-61
2022/06/26 00:26:27;;;;;;;1.63;1.10;;;;;;;;;;4994189;28;94833;-61
2022/06/26 00:28:53;;;;;;;1.48;1.33;;;;;;;;;;4995174;28;93503;-61
2022/06/26 00:31:19;;;;;;;1.90;1.40;;;;;;;;;;4995503;28;92358;-61
2022/06/26 00:33:46;;;;;;;2.67;1.05;;;;;;;;;;4998007;28;93200;-61
2022/06/26 00:36:12;;;;;;;1.63;1.13;;;;;;;;;;4995550;28;92424;-61
2022/06/26 00:38:38;;;;;;;5.30;1.33;;;;;;;;;;4995422;28;93149;-61
2022/06/26 00:41:05;;;;;;;1.23;1.13;;;;;;;;;;4995010;28;93287;-61
2022/06/26 00:43:32;;;;;;;2.05;1.38;;;;;;;;;;4995962;28;91723;-61
2022/06/26 00:45:58;;;;;;;1.40;1.30;;;;;;;;;;4995115;28;93594;-61
2022/06/26 00:48:24;;;;;;;2.25;1.25;;;;;;;;;;4994899;28;93493;-61
2022/06/26 00:50:51;;;;;;;1.67;1.27;;;;;;;;;;4993532;28;94839;-62
2022/06/26 00:53:18;;;;;;;1.70;1.30;;;;;;;;;;4995033;28;95419;-61
2022/06/26 00:55:44;;;;;;;7.95;1.58;;;;;;;;;;4998118;28;93608;-61
2022/06/26 00:58:10;;;;;;;1.25;1.15;;;;;;;;;;4994966;28;93166;-61
2022/06/26 01:00:37;;;;;;;1.23;0.90;;;;;;;;;;4994739;28;93484;-62
2022/06/26 01:03:03;;;;;;;1.20;1.10;;;;;;;;;;4994808;28;92369;-61
2022/06/26 01:05:30;;;;;;;1.42;1.13;;;;;;;;;;4995002;28;93505;-61
2022/06/26 01:07:56;;;;;;;1.27;1.17;;;;;;;;;;4995622;28;92734;-62
2022/06/26 01:10:24;;;;;;;1.33;1.23;;;;;;;;;;4994013;28;92387;-61
2022/06/26 01:12:51;;;;;;;1.52;1.30;;;;;;;;;;4994766;28;93327;-62
2022/06/26 01:15:18;;;;;;;1.13;1.05;;;;;;;;;;4992989;28;96958;-61
2022/06/26 01:17:45;;;;;;;0.95;0.95;;;;;;;;;;4998164;28;92378;-61
2022/06/26 01:20:11;;;;;;;1.63;1.23;;;;;;;;;;4994728;28;93368;-61
2022/06/26 01:22:37;;;;;;;1.50;1.40;;;;;;;;;;4994961;28;92297;-61
2022/06/26 01:25:04;;;;;;;1.27;1.17;;;;;;;;;;4994674;28;93238;-61
2022/06/26 01:27:30;;;;;;;1.20;1.10;;;;;;;;;;4994659;28;93669;-61
2022/06/26 01:29:57;;;;;;;1.17;1.08;;;;;;;;;;4993518;28;92371;-61
2022/06/26 01:32:24;;;;;;;1.05;1.00;;;;;;;;;;4995354;28;94702;-61
2022/06/26 01:34:50;;;;;;;1.45;1.30;;;;;;;;;;4994550;28;94439;-61
2022/06/26 01:37:17;;;;;;;1.23;1.13;;;;;;;;;;4994848;28;92365;-61
2022/06/26 01:39:43;;;;;;;2.70;1.60;;;;;;;;;;4995980;28;94856;-61
2022/06/26 01:42:09;;;;;;;1.30;0.98;;;;;;;;;;4994628;28;92391;-61
2022/06/26 01:44:36;;;;;;;1.55;1.30;;;;;;;;;;4994363;28;93129;-61
2022/06/26 01:47:02;;;;;;;1.75;1.45;;;;;;;;;;4994182;28;93789;-62
2022/06/26 01:49:28;;;;;;;1.10;1.10;;;;;;;;;;4993630;28;92521;-61
2022/06/26 01:51:55;;;;;;;1.05;0.98;;;;;;;;;;4994320;28;93095;-61
2022/06/26 01:54:21;;;;;;;1.38;1.20;;;;;;;;;;4994577;28;94446;-61
2022/06/26 01:56:47;;;;;;;1.63;1.52;;;;;;;;;;4994824;28;91645;-62
2022/06/26 01:59:13;;;;;;;1.60;1.05;;;;;;;;;;4996322;28;92420;-61
2022/06/26 02:01:40;;;;;;;2.42;1.30;;;;;;;;;;4994425;28;92436;-61
2022/06/26 02:04:06;;;;;;;1.73;1.42;;;;;;;;;;4992750;28;94795;-61
2022/06/26 02:06:33;;;;;;;1.83;1.30;;;;;;;;;;4994228;28;93385;-61
2022/06/26 02:08:59;;;;;;;1.33;1.20;;;;;;;;;;4994562;28;92446;-61
2022/06/26 02:14:10;;;;;;;2.08;1.20;;;;;;;;;;4993827;28;93498;-61
2022/06/26 02:16:37;;;;;;;1.40;1.13;;;;;;;;;;4994430;28;92410;-61
2022/06/26 02:19:03;;;;;;;1.08;0.98;;;;;;;;;;4994030;28;93476;-61
2022/06/26 02:21:30;;;;;;;1.23;1.13;;;;;;;;;;4997746;28;92772;-61
2022/06/26 02:23:59;;;;;;;1.00;1.00;;;;;;;;;;4993930;28;92473;-62
2022/06/26 02:26:25;;;;;;;1.40;1.13;;;;;;;;;;4994454;28;93488;-62
2022/06/26 02:28:52;;;;;;;1.48;1.38;;;;;;;;;;4995960;28;94827;-61
2022/06/26 02:31:18;;;;;;;1.45;1.13;;;;;;;;;;4997178;28;96017;-61
2022/06/26 02:33:45;;;;;;;2.45;1.30;;;;;;;;;;4997358;28;94483;-61
2022/06/26 02:36:11;;;;;;;1.30;1.20;;;;;;;;;;4997214;28;94077;-61
2022/06/26 02:38:37;;;;;;;1.50;1.15;;;;;;;;;;4997468;28;94240;-61
2022/06/26 02:41:04;;;;;;;1.30;1.20;;;;;;;;;;4997083;28;93673;-61
2022/06/26 02:43:30;;;;;;;1.10;1.10;;;;;;;;;;5000313;28;92471;-62
2022/06/26 02:45:56;;;;;;;3.03;1.30;;;;;;;;;;4997922;28;94676;-61
2022/06/26 02:48:23;;;;;;;1.58;1.10;;;;;;;;;;4997257;28;92456;-61
2022/06/26 02:50:50;;;;;;;1.00;1.00;;;;;;;;;;4996882;28;92949;-61
2022/06/26 02:53:16;;;;;;;1.45;1.27;;;;;;;;;;4994977;28;95910;-61
2022/06/26 02:55:43;;;;;;;1.90;1.20;;;;;;;;;;4997327;28;92731;-61
2022/06/26 02:58:09;;;;;;;2.30;1.40;;;;;;;;;;4996790;28;92509;-61
2022/06/26 03:00:36;;;;;;;1.23;1.13;;;;;;;;;;4997004;28;94526;-61
2022/06/26 03:03:03;;;;;;;1.25;1.15;;;;;;;;;;4996894;28;92476;-61
2022/06/26 03:05:30;;;;;;;1.40;1.30;;;;;;;;;;4999777;28;93457;-61
2022/06/26 03:07:56;;;;;;;1.08;1.00;;;;;;;;;;4996913;28;92588;-61
2022/06/26 03:10:23;;;;;;;1.30;1.30;;;;;;;;;;4997322;28;93002;-61
2022/06/26 03:12:50;;;;;;;1.33;1.23;;;;;;;;;;4996576;28;93667;-61
2022/06/26 03:15:17;;;;;;;1.95;1.38;;;;;;;;;;4996850;28;92502;-61
2022/06/26 03:17:43;;;;;;;2.15;1.67;;;;;;;;;;4995072;28;94849;-61
2022/06/26 03:20:15;;;;;;;1.60;1.33;;;;;;;;;;4996759;28;94547;-61
2022/06/26 03:22:41;;;;;;;1.40;1.30;;;;;;;;;;4996602;28;92482;-61
2022/06/26 03:25:08;;;;;;;1.40;1.30;;;;;;;;;;4996595;28;93288;-61
2022/06/26 03:27:36;;;;;;;1.30;1.23;;;;;;;;;;4999679;28;93224;-61
2022/06/26 03:30:03;;;;;;;1.60;1.50;;;;;;;;;;4996854;28;94186;-61
2022/06/26 03:32:30;;;;;;;1.33;1.23;;;;;;;;;;4995300;28;93556;-61
2022/06/26 03:34:56;;;;;;;1.38;1.25;;;;;;;;;;4996576;28;91617;-61
2022/06/26 03:37:22;;;;;;;1.73;1.45;;;;;;;;;;4996269;28;92467;-61
2022/06/26 03:39:49;;;;;;;1.20;1.20;;;;;;;;;;4995192;28;93489;-61
2022/06/26 03:42:15;;;;;;;2.03;1.70;;;;;;;;;;4994379;28;95273;-61
2022/06/26 03:44:41;;;;;;;1.42;1.33;;;;;;;;;;4996042;28;95779;-61
2022/06/26 03:47:08;;;;;;;1.80;1.50;;;;;;;;;;4995886;28;93391;-61
2022/06/26 03:49:34;;;;;;;4.70;1.80;;;;;;;;;;4999178;28;92439;-61
2022/06/26 03:52:01;;;;;;;1.77;1.67;;;;;;;;;;4996070;28;94451;-61
2022/06/26 03:54:27;;;;;;;2.05;1.67;;;;;;;;;;4996191;28;92369;-61
2022/06/26 03:56:53;;;;;;;1.80;1.70;;;;;;;;;;4996071;28;92837;-61
2022/06/26 03:59:19;;;;;;;1.85;1.75;;;;;;;;;;4996373;28;92883;-61
2022/06/26 04:01:46;;;;;;;1.70;1.60;;;;;;;;;;4995793;28;92317;-61
2022/06/26 04:04:12;;;;;;;1.60;1.50;;;;;;;;;;4995734;28;93077;-61
2022/06/26 04:06:38;;;;;;;2.15;1.88;;;;;;;;;;4994184;28;96769;-61
2022/06/26 04:09:05;;;;;;;1.77;1.63;;;;;;;;;;4999062;28;92476;-61
2022/06/26 04:11:31;;;;;;;1.80;1.70;;;;;;;;;;4995808;28;92479;-62
2022/06/26 04:13:57;;;;;;;1.85;1.75;;;;;;;;;;4995381;28;92557;-61
2022/06/26 04:16:24;;;;;;;2.50;2.00;;;;;;;;;;4995975;28;92954;-61
2022/06/26 04:18:50;;;;;;;2.35;2.13;;;;;;;;;;4995473;28;94826;-61
2022/06/26 04:21:17;;;;;;;2.08;1.92;;;;;;;;;;4996001;28;92516;-61
2022/06/26 04:23:43;;;;;;;3.22;1.95;;;;;;;;;;4996036;28;93149;-61
2022/06/26 04:26:09;;;;;;;2.25;2.08;;;;;;;;;;4995560;28;93364;-61
2022/06/26 04:28:36;;;;;;;2.47;2.28;;;;;;;;;;4995522;28;92383;-61
2022/06/26 04:31:02;;;;;;;2.22;2.03;;;;;;;;;;4996894;28;94882;-62
2022/06/26 04:33:28;;;;;;;2.92;2.35;;;;;;;;;;4995538;28;92444;-61
2022/06/26 04:35:54;;;;;;;2.60;2.00;;;;;;;;;;4995677;28;94504;-61
2022/06/26 04:38:21;;;;;;;2.20;2.00;;;;;;;;;;4995025;28;93565;-62
2022/06/26 04:40:47;;;;;;;2.00;1.90;;;;;;;;;;4995467;28;92439;-61
2022/06/26 04:43:14;;;;;;;3.15;2.20;;;;;;;;;;4995396;28;92370;-61
2022/06/26 04:45:40;;;;;;;2.67;2.47;;;;;;;;;;4994673;28;93494;-61
2022/06/26 04:48:06;;;;;;;3.50;2.28;;;;;;;;;;4994794;28;91921;-61
2022/06/26 04:50:33;;;;;;;2.38;1.90;;;;;;;;;;4994951;28;92460;-61
2022/06/26 04:53:00;;;;;;;2.30;2.03;;;;;;;;;;4998218;28;94396;-61
2022/06/26 04:55:26;;;;;;;2.45;2.05;;;;;;;;;;4993647;28;96523;-61
2022/06/26 04:57:52;;;;;;;2.15;1.95;;;;;;;;;;4994941;28;93829;-61
2022/06/26 05:00:19;;;;;;;2.58;2.30;;;;;;;;;;4995350;28;92387;-61
2022/06/26 05:02:45;;;;;;;3.28;2.70;;;;;;;;;;4994767;28;93234;-61
2022/06/26 05:05:12;;;;;;;3.22;2.53;;;;;;;;;;4995069;28;92434;-61
2022/06/26 05:07:38;;;;;;;2.45;2.20;;;;;;;;;;4993841;28;92482;-61
2022/06/26 05:10:05;;;;;;;3.35;2.72;;;;;;;;;;4995102;28;93179;-61
2022/06/26 05:12:31;;;;;;;3.50;2.60;;;;;;;;;;4995355;28;93205;-61
2022/06/26 05:14:58;;;;;;;4.60;2.58;;;;;;;;;;4998034;28;92566;-62
2022/06/26 05:17:24;;;;;;;3.38;2.20;;;;;;;;;;4994757;28;93380;-61
2022/06/26 05:19:50;;;;;;;2.67;2.45;;;;;;;;;;4993111;28;94822;-61
2022/06/26 05:22:16;;;;;;;2.92;2.58;;;;;;;;;;4995146;28;96613;-61
2022/06/26 05:24:43;;;;;;;3.03;2.50;;;;;;;;;;4994569;28;93576;-61
2022/06/26 05:27:09;;;;;;;2.80;2.30;;;;;;;;;;4994775;28;92399;-61
2022/06/26 05:29:41;;;;;;;3.65;2.50;;;;;;;;;;4994516;28;93694;-61
2022/06/26 05:32:08;;;;;;;3.50;2.60;;;;;;;;;;4994781;28;94796;-61
2022/06/26 05:34:34;;;;;;;2.92;2.42;;;;;;;;;;4994637;28;92506;-62
2022/06/26 05:37:01;;;;;;;2.05;1.95;;;;;;;;;;4997856;28;93594;-61
2022/06/26 05:39:27;;;;;;;2.65;2.47;;;;;;;;;;4994663;28;92709;-61
2022/06/26 05:41:53;;;;;;;3.30;2.55;;;;;;;;;;4994555;28;93194;-61
2022/06/26 05:44:26;;;;;;;2.97;2.25;;;;;;;;;;4992920;28;95913;-61
2022/06/26 05:46:53;;;;;;;3.33;2.55;;;;;;;;;;4994488;28;92395;-61
2022/06/26 05:49:19;;;;;;;3.33;2.75;;;;;;;;;;4994367;28;92955;-62
2022/06/26 05:51:45;;;;;;;3.10;2.58;;;;;;;;;;4994375;28;93610;-61
2022/06/26 05:54:11;;;;;;;4.03;3.10;;;;;;;;;;4993802;28;92492;-61
2022/06/26 05:56:38;;;;;;;3.97;3.03;;;;;;;;;;4995980;28;93059;-61
2022/06/26 05:59:04;;;;;;;3.20;2.67;;;;;;;;;;4994285;28;92535;-61
2022/06/26 06:01:30;;;;;;;3.05;2.75;;;;;;;;;;4995432;28;93268;-61
2022/06/26 06:03:57;;;;;;;4.00;2.78;;;;;;;;;;4997226;28;93319;-61
2022/06/26 06:06:23;;;;;;;3.80;2.65;;;;;;;;;;4997994;28;92555;-61
2022/06/26 06:08:49;;;;;;;2.50;2.30;;;;;;;;;;4996081;28;94734;-61
2022/06/26 06:11:16;;;;;;;3.22;2.72;;;;;;;;;;4997363;28;93212;-61
2022/06/26 06:13:42;;;;;;;3.67;3.08;;;;;;;;;;4997392;28;92494;-61
2022/06/26 06:16:08;;;;;;;5.05;3.00;;;;;;;;;;4997727;28;93477;-61
2022/06/26 06:18:35;;;;;;;3.38;2.35;;;;;;;;;;5000329;28;93399;-61
2022/06/26 06:21:06;;;;;;;3.10;2.78;;;;;;;;;;4997710;28;93680;-61
2022/06/26 06:23:36;;;;;;;;;;;;;;;;;;4997453;28;93936;-61
2022/06/26 06:26:03;;;;;;;3.33;2.60;;;;;;;;;;4998737;28;116646;-61
2022/06/26 06:28:29;;;;;;;4.15;2.80;;;;;;;;;;4997422;28;92513;-61
2022/06/26 06:30:55;;;;;;;3.42;2.70;;;;;;;;;;4997081;28;92967;-62
2022/06/26 06:33:21;;;;;;;3.00;2.67;;;;;;;;;;4994964;28;95136;-61
2022/06/26 06:35:48;;;;;;;2.67;2.47;;;;;;;;;;4996323;28;95499;-61
2022/06/26 06:38:15;;;;;;;3.63;2.85;;;;;;;;;;4996738;28;93744;-62
2022/06/26 06:40:41;;;;;;;3.50;2.20;;;;;;;;;;4999495;28;92724;-62
2022/06/26 06:43:10;;;;;;;4.20;2.72;;;;;;;;;;4997247;28;93613;-61
2022/06/26 06:45:37;;;;;;;2.97;2.30;;;;;;;;;;4997401;28;92522;-62
2022/06/26 06:48:03;;;;;;;2.70;2.50;;;;;;;;;;4997415;28;92450;-61
2022/06/26 06:50:29;;;;;;;3.95;1.92;;;;;;;;;;4997293;28;91735;-61
2022/06/26 06:52:56;;;;;;;4.00;2.70;;;;;;;;;;4995619;28;92941;-61
2022/06/26 06:55:22;;;;;;;4.45;2.50;;;;;;;;;;4997207;28;94214;-61
2022/06/26 06:57:49;;;;;;;4.32;2.38;;;;;;;;;;4995237;28;95684;-61
2022/06/26 07:00:16;;;;;;;3.10;2.40;;;;;;;;;;4996632;28;92458;-62
2022/06/26 07:02:42;;;;;;;3.65;2.10;;;;;;;;;;5000137;28;94480;-61
2022/06/26 07:05:08;;;;;;;2.58;2.33;;;;;;;;;;4997106;28;92478;-61
2022/06/26 07:07:36;;;;;;;4.43;2.28;;;;;;;;;;4996964;28;93442;-61
2022/06/26 07:10:03;;;;;;;4.78;2.08;;;;;;;;;;4996561;28;93784;-61
2022/06/26 07:12:29;;;;;;;4.85;2.20;;;;;;;;;;4996474;28;92372;-61
2022/06/26 07:14:56;;;;;;;3.55;2.10;;;;;;;;;;4996246;28;93581;-62
2022/06/26 07:17:22;;;;;;;2.78;2.10;;;;;;;;;;4976935;28;94566;-62
2022/06/26 07:19:49;;;;;;;2.85;2.10;;;;;;;;;;4976465;28;92469;-61
2022/06/26 07:22:15;;;;;;;2.58;2.03;;;;;;;;;;4975138;28;95019;-61
2022/06/26 07:24:42;;;;;;;2.63;2.25;;;;;;;;;;4978016;28;93521;-61
2022/06/26 07:27:08;;;;;;;3.47;2.35;;;;;;;;;;4976952;28;94192;-61
2022/06/26 07:29:35;;;;;;;2.47;2.03;;;;;;;;;;4976267;28;93612;-61
2022/06/26 07:32:01;;;;;;;2.20;2.00;;;;;;;;;;4976489;28;93263;-61
2022/06/26 07:34:27;;;;;;;2.63;2.15;;;;;;;;;;4976269;28;93108;-61
2022/06/26 07:36:54;;;;;;;2.67;2.22;;;;;;;;;;4976652;28;94303;-61
2022/06/26 07:39:20;;;;;;;2.58;2.33;;;;;;;;;;4976850;28;91664;-61
2022/06/26 07:41:47;;;;;;;2.38;1.90;;;;;;;;;;4976837;28;93615;-62
2022/06/26 07:44:14;;;;;;;3.92;2.10;;;;;;;;;;4976404;28;94520;-61
2022/06/26 07:46:40;;;;;;;4.00;1.90;;;;;;;;;;4991473;28;94743;-61
2022/06/26 07:49:07;;;;;;;2.75;1.80;;;;;;;;;;4995870;28;93362;-61
2022/06/26 07:51:33;;;;;;;3.50;1.70;;;;;;;;;;4996399;28;93027;-61
2022/06/26 07:54:00;;;;;;;2.28;2.10;;;;;;;;;;4996287;28;94706;-62
2022/06/26 07:56:26;;;;;;;2.53;1.75;;;;;;;;;;4994889;28;93299;-61
2022/06/26 07:58:53;;;;;;;4.18;2.08;;;;;;;;;;4996259;28;92361;-61
2022/06/26 08:01:20;;;;;;;1.92;1.75;;;;;;;;;;4995833;28;93033;-61
2022/06/26 08:03:46;;;;;;;1.98;1.70;;;;;;;;;;4995915;28;92903;-61
2022/06/26 08:06:13;;;;;;;2.60;1.70;;;;;;;;;;4997880;28;92424;-61
2022/06/26 08:08:39;;;;;;;3.47;1.83;;;;;;;;;;4995818;28;93911;-61
2022/06/26 08:11:06;;;;;;;3.90;1.63;;;;;;;;;;4993235;28;94791;-61
2022/06/26 08:13:32;;;;;;;2.20;1.88;;;;;;;;;;4995758;28;95810;-61
2022/06/26 08:15:58;;;;;;;2.17;1.85;;;;;;;;;;4995385;28;93373;-61
2022/06/26 08:18:25;;;;;;;2.08;1.88;;;;;;;;;;4995609;28;92453;-61
2022/06/26 08:20:51;;;;;;;2.75;1.92;;;;;;;;;;4995679;28;92961;-61
2022/06/26 08:23:17;;;;;;;3.15;1.88;;;;;;;;;;4995471;28;93813;-61
2022/06/26 08:25:44;;;;;;;2.67;1.85;;;;;;;;;;4994846;28;92497;-61
2022/06/26 08:28:10;;;;;;;2.90;2.15;;;;;;;;;;4998071;28;93127;-61
2022/06/26 08:30:37;;;;;;;2.67;1.70;;;;;;;;;;4995626;28;92993;-62
2022/06/26 08:33:03;;;;;;;1.98;1.85;;;;;;;;;;4995888;28;94394;-61
2022/06/26 08:35:29;;;;;;;3.97;2.15;;;;;;;;;;4993618;28;96162;-61
2022/06/26 08:37:56;;;;;;;2.65;1.83;;;;;;;;;;4995649;28;92404;-61
2022/06/26 08:40:22;;;;;;;2.00;1.90;;;;;;;;;;4995426;28;93003;-61
2022/06/26 08:42:52;;;;;;;2.58;1.88;;;;;;;;;;4995391;28;93627;-61
2022/06/26 08:45:22;;;;;;;2.90;1.70;;;;;;;;;;4995170;28;92508;-61
2022/06/26 08:47:50;;;;;;;1.80;1.70;;;;;;;;;;4995533;28;93154;-61
2022/06/26 08:50:18;;;;;;;2.00;1.90;;;;;;;;;;4998310;28;94034;-62
2022/06/26 08:52:45;;;;;;;1.80;1.70;;;;;;;;;;4995942;28;93254;-61
2022/06/26 08:55:14;;;;;;;3.05;2.15;;;;;;;;;;4994822;28;93577;-61
2022/06/26 08:57:41;;;;;;;3.97;2.20;;;;;;;;;;4995157;28;92467;-61
2022/06/26 09:00:07;;;;;;;3.17;2.00;;;;;;;;;;4993577;28;94782;-61
2022/06/26 09:02:33;;;;;;;2.58;1.90;;;;;;;;;;4994874;28;93770;-61
2022/06/26 09:05:00;;;;;;;1.70;1.60;;;;;;;;;;4994743;28;92468;-61
2022/06/26 09:07:27;;;;;;;4.32;1.70;;;;;;;;;;4995451;28;93139;-61
2022/06/26 09:09:53;;;;;;;4.90;1.70;;;;;;;;;;4995060;28;94376;-61
2022/06/26 09:12:19;;;;;;;3.22;2.08;;;;;;;;;;4997963;28;92519;-62
2022/06/26 09:14:50;;;;;;;2.40;2.20;;;;;;;;;;4994234;28;93512;-61
2022/06/26 09:17:21;;;;;;;4.28;1.90;;;;;;;;;;4995705;28;91666;-61
2022/06/26 09:19:50;;;;;;;3.20;1.67;;;;;;;;;;4994039;28;92843;-61
2022/06/26 09:22:17;;;;;;;2.50;1.85;;;;;;;;;;4994712;28;93346;-61
2022/06/26 09:24:54;;;;;;;2.22;1.88;;;;;;;;;;4993452;28;94796;-61
2022/06/26 09:27:21;;;;;;;2.13;1.92;;;;;;;;;;4994788;28;95658;-61
2022/06/26 09:29:49;;;;;;;2.17;1.67;;;;;;;;;;4994990;28;93674;-62
2022/06/26 09:32:16;;;;;;;3.53;2.10;;;;;;;;;;4994693;28;92461;-61
2022/06/26 09:34:46;;;;;;;1.67;1.58;;;;;;;;;;4998026;28;93943;-61
2022/06/26 09:37:12;;;;;;;3.03;1.70;;;;;;;;;;4997606;28;92479;-61
2022/06/26 09:39:39;;;;;;;1.40;1.30;;;;;;;;;;4998387;28;93428;-61
2022/06/26 09:42:16;;;;;;;2.13;1.80;;;;;;;;;;4998575;28;92638;-61
2022/06/26 09:44:43;;;;;;;3.88;1.63;;;;;;;;;;4998461;28;92446;-62
2022/06/26 09:47:26;;;;;;;3.10;1.60;;;;;;;;;;4997894;28;93207;-61
2022/06/26 09:49:54;;;;;;;2.22;1.83;;;;;;;;;;4996241;28;94815;-62
2022/06/26 09:52:20;;;;;;;1.90;1.70;;;;;;;;;;4997876;28;92481;-61
2022/06/26 09:54:47;;;;;;;1.77;1.65;;;;;;;;;;4997985;28;92937;-61
2022/06/26 09:57:14;;;;;;;2.55;1.60;;;;;;;;;;5000891;28;93520;-61
2022/06/26 09:59:41;;;;;;;2.78;1.75;;;;;;;;;;4997832;28;93536;-61
2022/06/26 10:07:49;;;;;;;1.77;1.67;;;;;;;;;;4998557;28;93547;-61
2022/06/26 10:10:17;;;;;;;1.70;1.60;;;;;;;;;;4997714;28;93282;-61
2022/06/26 10:12:45;;;;;;;1.90;1.80;;;;;;;;;;4997789;28;92548;-62
2022/06/26 10:15:13;;;;;;;2.03;1.80;;;;;;;;;;4994927;28;94892;-61
2022/06/26 10:17:51;;;;;;;2.00;1.80;;;;;;;;;;5000476;28;93863;-61
2022/06/26 10:20:19;;;;;;;2.35;1.65;;;;;;;;;;4997822;28;92969;-61
2022/06/26 10:22:45;;;;;;;2.45;2.20;;;;;;;;;;4997277;28;93534;-61
2022/06/26 10:25:25;;;;;;;1.77;1.67;;;;;;;;;;4997689;28;92908;-63
2022/06/26 10:27:51;;;;;;;2.33;1.67;;;;;;;;;;4997304;28;93179;-61
2022/06/26 10:30:19;;;;;;;2.45;1.63;;;;;;;;;;4997553;28;93217;-61
2022/06/26 10:32:46;;;;;;;2.63;1.70;;;;;;;;;;4998072;28;91693;-61
2022/06/26 10:35:13;;;;;;;2.28;1.70;;;;;;;;;;4997697;28;93403;-61
2022/06/26 10:37:44;;;;;;;3.50;1.80;;;;;;;;;;4997336;28;94746;-62
2022/06/26 10:40:11;;;;;;;1.52;1.42;;;;;;;;;;4998997;28;94976;-61
2022/06/26 10:42:53;;;;;;;1.67;1.58;;;;;;;;;;4997380;28;94395;-61
2022/06/26 10:45:27;;;;;;;2.13;1.92;;;;;;;;;;4997268;28;92479;-62
2022/06/26 10:47:57;;;;;;;1.55;1.45;;;;;;;;;;4996548;28;93334;-61
2022/06/26 10:50:24;;;;;;;1.60;1.50;;;;;;;;;;4997000;28;93507;-62
2022/06/26 10:52:50;;;;;;;2.50;1.80;;;;;;;;;;4997422;28;92455;-61
2022/06/26 10:55:17;;;;;;;1.77;1.52;;;;;;;;;;4997009;28;93262;-61
2022/06/26 10:57:43;;;;;;;1.60;1.50;;;;;;;;;;4997609;28;93577;-61
2022/06/26 11:00:12;;;;;;;2.60;1.60;;;;;;;;;;4996970;28;92445;-61
2022/06/26 11:02:40;;;;;;;2.00;1.50;;;;;;;;;;4999801;28;93167;-61
2022/06/26 11:05:08;;;;;;;1.45;1.33;;;;;;;;;;4995626;28;96392;-61
2022/06/26 11:07:42;;;;;;;1.65;1.55;;;;;;;;;;4996815;28;95498;-61
2022/06/26 11:10:15;;;;;;;1.60;1.50;;;;;;;;;;4996734;28;93753;-61
2022/06/26 11:12:43;;;;;;;2.00;1.70;;;;;;;;;;4996869;28;92480;-61
2022/06/26 11:15:32;;;;;;;2.00;1.75;;;;;;;;;;4996889;28;92969;-61
2022/06/26 11:18:00;;;;;;;1.93;1.57;;;;;;;;;;4996862;28;93754;-61
2022/06/26 11:23:13;;;;;;;1.48;1.38;;;;;;;;;;4997148;28;93166;-61
2022/06/26 11:25:41;;;;;;;2.50;1.70;;;;;;;;;;4999653;28;94719;-61
2022/06/26 11:28:08;;;;;;;3.63;2.17;;;;;;;;;;4996424;28;92964;-61
2022/06/26 11:30:36;;;;;;;2.33;1.83;;;;;;;;;;4994785;28;95712;-61
2022/06/26 11:33:02;;;;;;;1.58;1.48;;;;;;;;;;4996625;28;92405;-61
2022/06/26 11:35:29;;;;;;;1.50;1.40;;;;;;;;;;4996658;28;93176;-61
2022/06/26 11:37:55;;;;;;;2.65;1.60;;;;;;;;;;4996159;28;93448;-61
2022/06/26 11:40:22;;;;;;;2.25;1.60;;;;;;;;;;4996116;28;92626;-61
2022/06/26 11:42:55;;;;;;;1.70;1.60;;;;;;;;;;4996296;28;93173;-61
2022/06/26 11:45:31;;;;;;;1.88;1.48;;;;;;;;;;4996456;28;93677;-61
2022/06/26 11:47:58;;;;;;;1.60;1.50;;;;;;;;;;4999781;28;91780;-61
2022/06/26 11:50:29;;;;;;;1.67;1.58;;;;;;;;;;4996252;28;93684;-62
2022/06/26 11:52:57;;;;;;;1.90;1.33;;;;;;;;;;4995687;28;92451;-61
2022/06/26 11:55:24;;;;;;;1.60;1.50;;;;;;;;;;4993639;28;94863;-61
2022/06/26 11:57:52;;;;;;;2.83;1.55;;;;;;;;;;4996044;28;94495;-61
2022/06/26 12:00:19;;;;;;;2.75;1.65;;;;;;;;;;4995151;28;92531;-61
2022/06/26 12:02:46;;;;;;;1.40;1.30;;;;;;;;;;4995796;28;94653;-61
2022/06/26 12:05:18;;;;;;;2.88;1.80;;;;;;;;;;4995658;28;93453;-61
2022/06/26 12:07:46;;;;;;;1.65;1.50;;;;;;;;;;4996051;28;92501;-61
2022/06/26 12:10:23;;;;;;;1.65;1.50;;;;;;;;;;4999039;28;93497;-61
2022/06/26 12:12:50;;;;;;;1.70;1.60;;;;;;;;;;4996425;28;91955;-61
2022/06/26 12:15:17;;;;;;;1.77;1.30;;;;;;;;;;4995617;28;93017;-61
2022/06/26 12:17:50;;;;;;;1.67;1.35;;;;;;;;;;4995253;28;92377;-61
2022/06/26 12:20:17;;;;;;;1.60;1.50;;;;;;;;;;4994422;28;94825;-61
2022/06/26 12:22:48;;;;;;;1.52;1.42;;;;;;;;;;4995556;28;95802;-61
2022/06/26 12:25:31;;;;;;;2.10;1.80;;;;;;;;;;4995546;28;93451;-61
2022/06/26 12:27:58;;;;;;;2.92;1.63;;;;;;;;;;4995779;28;92471;-61
2022/06/26 12:30:28;;;;;;;1.90;1.50;;;;;;;;;;4998234;28;94181;-61
2022/06/26 12:32:55;;;;;;;1.75;1.55;;;;;;;;;;4995442;28;92539;-61
2022/06/26 12:35:21;;;;;;;1.73;1.48;;;;;;;;;;5011398;28;93505;-61
2022/06/26 12:37:48;;;;;;;1.77;1.50;;;;;;;;;;4995661;28;92693;-61
2022/06/26 12:40:14;;;;;;;2.65;1.45;;;;;;;;;;4995401;28;92533;-61
2022/06/26 12:42:40;;;;;;;1.50;1.40;;;;;;;;;;4995124;28;93576;-61
2022/06/26 12:45:07;;;;;;;2.10;1.70;;;;;;;;;;4993651;28;95663;-61
2022/06/26 12:47:34;;;;;;;1.83;1.60;;;;;;;;;;4995946;28;92474;-61
2022/06/26 12:50:01;;;;;;;2.20;1.70;;;;;;;;;;4995347;28;93061;-61
2022/06/26 12:52:27;;;;;;;1.92;1.60;;;;;;;;;;4998036;28;93659;-61
2022/06/26 12:54:53;;;;;;;1.73;1.30;;;;;;;;;;4995592;28;94314;-62
2022/06/26 12:57:20;;;;;;;1.67;1.58;;;;;;;;;;4994872;28;94305;-61
2022/06/26 12:59:46;;;;;;;1.95;1.40;;;;;;;;;;4995269;28;92431;-61
2022/06/26 13:02:12;;;;;;;3.10;1.70;;;;;;;;;;4995976;28;94153;-61
2022/06/26 13:04:39;;;;;;;1.38;1.27;;;;;;;;;;4994858;28;93878;-61
2022/06/26 13:07:05;;;;;;;2.40;1.60;;;;;;;;;;4995103;28;92870;-61
2022/06/26 13:09:32;;;;;;;2.45;1.30;;;;;;;;;;4993215;28;94900;-61
2022/06/26 13:11:58;;;;;;;1.58;1.48;;;;;;;;;;4993300;28;93310;-61
2022/06/26 13:14:24;;;;;;;1.90;1.70;;;;;;;;;;4997701;28;92498;-61
2022/06/26 13:16:51;;;;;;;2.63;1.70;;;;;;;;;;4994751;28;93282;-61
2022/06/26 13:19:17;;;;;;;2.25;1.23;;;;;;;;;;4994906;28;92309;-61
2022/06/26 13:21:43;;;;;;;2.47;1.77;;;;;;;;;;4993881;28;93129;-61
2022/06/26 13:24:10;;;;;;;1.40;1.30;;;;;;;;;;4994868;28;94499;-61
2022/06/26 13:26:38;;;;;;;1.40;1.30;;;;;;;;;;4995250;28;91949;-61
2022/06/26 13:29:04;;;;;;;1.60;1.50;;;;;;;;;;4995214;28;92352;-62
2022/06/26 13:31:30;;;;;;;1.40;1.30;;;;;;;;;;4994462;28;93526;-61
2022/06/26 13:33:57;;;;;;;2.17;1.60;;;;;;;;;;4993369;28;94813;-61
2022/06/26 13:36:23;;;;;;;1.30;1.20;;;;;;;;;;4997594;28;95679;-62
2022/06/26 13:38:50;;;;;;;1.85;1.58;;;;;;;;;;4994787;28;92511;-61
2022/06/26 13:41:16;;;;;;;1.50;1.40;;;;;;;;;;4994335;28;93251;-62
2022/06/26 13:43:43;;;;;;;1.95;1.50;;;;;;;;;;4994558;28;93464;-62
2022/06/26 13:46:09;;;;;;;1.70;1.35;;;;;;;;;;4994615;28;92407;-61
2022/06/26 13:48:35;;;;;;;2.13;1.50;;;;;;;;;;4994325;28;93303;-61
2022/06/26 13:51:02;;;;;;;1.70;1.60;;;;;;;;;;4995091;28;93469;-61
2022/06/26 13:53:29;;;;;;;1.25;1.15;;;;;;;;;;4994508;28;92379;-61
2022/06/26 13:55:55;;;;;;;2.22;1.83;;;;;;;;;;4994589;28;94285;-61
2022/06/26 13:58:22;;;;;;;1.65;1.35;;;;;;;;;;4995503;28;96025;-62
2022/06/26 14:00:48;;;;;;;1.52;1.42;;;;;;;;;;4994400;28;95562;-61
2022/06/26 14:03:14;;;;;;;2.17;1.30;;;;;;;;;;4993953;28;93534;-62
2022/06/26 14:05:41;;;;;;;2.10;1.70;;;;;;;;;;4994536;28;92379;-61
2022/06/26 14:08:08;;;;;;;1.80;1.42;;;;;;;;;;4992873;28;93313;-62
2022/06/26 14:10:38;;;;;;;1.83;1.48;;;;;;;;;;4994362;28;94416;-61
2022/06/26 14:13:04;;;;;;;2.25;1.42;;;;;;;;;;4994373;28;92385;-62
2022/06/26 14:15:31;;;;;;;1.50;1.40;;;;;;;;;;4994272;28;93321;-61
2022/06/26 14:17:57;;;;;;;2.28;1.80;;;;;;;;;;4993968;28;93479;-61
2022/06/26 14:20:23;;;;;;;3.10;1.60;;;;;;;;;;4997317;28;92374;-61
2022/06/26 14:28:20;;;;;;;1.50;1.40;;;;;;;;;;4997431;28;93176;-62
2022/06/26 14:30:47;;;;;;;1.75;1.40;;;;;;;;;;4997249;28;93534;-61
2022/06/26 14:33:17;;;;;;;2.63;1.38;;;;;;;;;;4997257;28;92508;-61
2022/06/26 14:35:50;;;;;;;1.63;1.20;;;;;;;;;;4997545;28;93661;-61
2022/06/26 14:38:18;;;;;;;1.63;1.38;;;;;;;;;;4996961;28;93567;-61
2022/06/26 14:40:45;;;;;;;1.55;1.23;;;;;;;;;;5000967;28;91694;-62
2022/06/26 14:43:11;;;;;;;1.70;1.40;;;;;;;;;;4996812;28;93780;-61
2022/06/26 14:45:38;;;;;;;1.90;1.52;;;;;;;;;;4997218;28;92846;-61
2022/06/26 14:48:04;;;;;;;2.15;1.65;;;;;;;;;;4995683;28;94932;-61
2022/06/26 14:50:31;;;;;;;2.72;1.42;;;;;;;;;;4996923;28;93429;-61
2022/06/26 14:52:57;;;;;;;1.80;1.30;;;;;;;;;;4997010;28;92318;-62
2022/06/26 14:55:23;;;;;;;1.75;1.30;;;;;;;;;;4995702;28;92915;-61
2022/06/26 14:57:50;;;;;;;1.15;1.08;;;;;;;;;;4997106;28;94473;-62
2022/06/26 15:00:16;;;;;;;1.48;1.38;;;;;;;;;;4996598;28;92397;-62